航空気象通報

ウインドサーファーのための航空気象通報による風予報です。

9/30-10/1の航空気象通報(国内、海外)

2010年09月30日 23時55分41秒 | TAF
羽田空港
TAF AMD RJTT 301217Z 3012/0112 03012KT 8000 FEW006 SCT009 BKN012
TEMPO 3015/3021 4500 -RA BR FEW006 BKN009 BKN012
日本時間30日21時-1日21時:030度から12ノットの風

但し、1日00-06時の間:一時、

富士山静岡空港
TAF RJNS 300839Z 3009/0112 32005KT 8000 -RA FEW008 BKN015
TEMPO 3009/3012 3000 RA BR FEW003 BKN006
TEMPO 3012/3018 4000 -RA BR FEW004 BKN009
BECMG 0100/0103 16006KT
日本時間30日18時-1日09時:320度から5ノットの風
09-12時:風が変化
12-21時:160度から6ノットの風

但し、30日18時-1日03時の間:一時、

那覇空港
TAF ROAH 300841Z 3009/0112 07007KT 9999 FEW020 SCT030
日本時間30日18時-1日21時:070度から7ノットの風


マウイのカフルイ空港
TAF PHOG 301138Z 3012/0112 VRB03KT P6SM SCT025 SCT050
FM302100 03012KT P6SM SCT025 BKN050
FM010500 VRB03KT P6SM SCT025 SCT050
ハワイ時間30日02-11時:風向不定3ノットの風

11-19時:030度から12ノット、突風25ノット

19時-1日02時:風向不定3ノットの風


サイパン空港
TAF PGSN 301121Z 3012/0112 07008KT P6SM VCSH SCT025 BKN110
マリアナ時間30日22時-1日22時:070度から8ノットの風

コメント
この記事をはてなブックマークに追加

9/29-9/30の航空気象通報(国内、海外)

2010年09月29日 23時25分23秒 | TAF
羽田空港
TAF RJTT 290838Z 2909/3012 10010KT 9999 FEW030 BKN050
BECMG 2914/2916 04010KT
TEMPO 3003/3009 4000 -RA BR FEW006 BKN009
TEMPO 3009/3012 3000 RA BR FEW004 BKN006 BKN009
日本時間29日18-23時:100度から10ノットの風
23時-30日01時:風が変化
01-21時:040度から10ノットの風

但し、30日12-21時の間:一時、

富士山静岡空港
TAF RJNS 290839Z 2909/3012 04006KT 9999 FEW020 BKN040
TEMPO 3003/3006 4000 -SHRA BR
TEMPO 3006/3012 3000 SHRA BR FEW005 BKN008
日本時間29日18時-30日21時:040度から6ノットの風

但し、30日12-21時の間:一時、

那覇空港
TAF ROAH 290840Z 2909/3012 08008KT 9999 FEW015 SCT025
日本時間29日18時-30日21時:080度から8ノットの風


マウイのカフルイ空港
TAF PHOG 291134Z 2912/3012 VRB04KT P6SM FEW050
FM292000 01012G18KT P6SM VCSH SCT030 BKN050
FM300600 01006KT P6SM SCT050
ハワイ時間29日02-10時:風向不定4ノットの風

10-20時:010度から12ノット、突風18ノット

20時-30日02時:010度から6ノットの風


サイパン空港
PGSN 291133Z 2912/3012 11008KT P6SM VCSH SCT018 SCT040 BKN140
マリアナ時間29日22時-30日22時:110度から8ノットの風

コメント
この記事をはてなブックマークに追加

9/28-9/29の航空気象通報(国内、海外)

2010年09月28日 23時50分09秒 | TAF
羽田空港
TAF RJTT 280847Z 2809/2912 16006KT 9999 FEW030 SCT060
BECMG 2811/2813 32008KT
BECMG 2814/2816 36018KT
BECMG 2900/2903 08010KT
日本時間28日18-20時:160度から6ノットの風
20-22時:風が変化
22-23時:320度から8ノットの風
23時-29日01時:風が変化
01-09時:360度から18ノットの風
09-12時:風が変化
12-21時:080度から10ノットの風


富士山静岡空港
TAF RJNS 280839Z 2809/2912 26015KT 9999 FEW030
TEMPO 2809/2815 26018G30KT
BECMG 2821/2824 12010KT
日本時間28日18時-29日06時:260度から15ノットの風
但し、28日18-24時の間:一時、260度から18ノット、突風30ノット
29日06-09時:風が変化
09-21時:120度から10ノットの風


那覇空港
TAF ROAH 280854Z 2809/2912 04009KT 9999 FEW020
日本時間28日18時-29日21時:040度から9ノットの風


マウイのカフルイ空港
TAF PHOG 281120Z 2812/2912 05005KT P6SM FEW050
FM282100 03015G21KT P6SM BKN050
FM290500 03010KT P6SM SCT050
ハワイ時間28日02-11時:050度から5ノットの風

11-19時:030度から15ノット、突風21ノット

19時-29日02時:030度から10ノットの風


サイパン空港
PGSN 281132Z 2812/2912 08009KT P6SM VCSH FEW020 SCT050
FM290000 07013KT P6SM VCSH SCT018 SCT040
マリアナ時間28日22時-29日09時:080度から9ノットの風
09-22時:070度から13ノットの風

コメント
この記事をはてなブックマークに追加

9/27-9/28の航空気象通報(国内、海外)

2010年09月27日 22時51分17秒 | TAF
羽田空港
TAF AMD RJTT 271109Z 2711/2812 35010KT 8000 -RA FEW006 SCT010 BKN012
TEMPO 2711/2715 4000 -RA BR FEW006 BKN008 BKN012
TEMPO 2715/2724 3000 RA BR FEW005 BKN008 BKN012
BECMG 2800/2803 14010KT
TEMPO 2800/2806 4000 -RA BR BKN008 BKN015
BECMG 2806/2809 01010KT
日本時間27日18時-28日09時:350度から10ノットの風
09-12時:風が変化
12-15時:140度から10ノットの風
15-18時:風が変化
18-21時:010度から10ノットの風


富士山静岡空港
TAF RJNS 270843Z 2709/2812 06006KT 8000 -SHRA FEW010 BKN030
TEMPO 2711/2718 4000 SHRA BR FEW005 BKN009
TEMPO 2718/2724 2000 +SHRA BR FEW003 BKN006
BECMG 2800/2803 24015KT
日本時間27日18時-28日09時:060度から6ノットの風
09-12時:風が変化
12-21時:240度から15ノットの風


那覇空港
TAF ROAH 270852Z 2709/2812 03005KT 9999 FEW030
TEMPO 2800/2806 4000 SHRA
日本時間27日18時-28日21時:030度から5ノットの風

但し、28日09-15時の間:一時、

マウイのカフルイ空港
TAF PHOG 271120Z 2712/2812 14005KT P6SM FEW045
FM272000 04014G20KT P6SM FEW035 SCT050
FM280500 05009KT P6SM FEW045
FM280800 VRB04KT P6SM FEW040
ハワイ時間27日02-10時:140度から5ノットの風
10-19時:040度から14ノット、突風20ノット
19-22時:050度から9ノットの風
22時-28日02時:風向不定4ノットの風


サイパン空港
PGSN 271125Z 2712/2812 08009KT P6SM VCSH FEW020 SCT040
FM272300 08013KT P6SM VCSH SCT018 SCT040
マリアナ時間27日22時-28日09時:080度から9ノットの風
09-22時:080度から13ノットの風
コメント
この記事をはてなブックマークに追加

9/26-9/27の航空気象通報(国内、海外)

2010年09月26日 21時57分42秒 | TAF
羽田空港
TAF RJTT 260839Z 2609/2712 12014KT 9999 SCT020 BKN040
BECMG 2612/2614 04016KT
BECMG 2616/2618 4000 -SHRA BR BKN008 BKN012
TEMPO 2618/2624 2500 SHRA BR
BECMG 2700/2703 8000 NSW FEW008 BKN012
日本時間26日18-21時:120度から14ノットの風
21-23時:風が変化
23時-27日21時:040度から16ノットの風
09-12時:風が変化
12-21時:180度から16ノットの風
、27日01-03時の後、
27日09-12時の後、

富士山静岡空港
TAF RJNS 260843Z 2609/2712 04010KT 8000 FEW005 BKN015
TEMPO 2609/2614 3000 SHRA BR FEW003 BKN009
TEMPO 2614/2618 4000 -SHRA BR FEW001 BKN005
BECMG 2703/2706 12008KT
日本時間26日18時-27日12時:040度から10ノットの風
12-15時:風が変化
15-21時:120度から8ノットの風

但し、26日18時-27日03時の間:一時、

那覇空港
TAF AMD ROAH 261040Z 2610/2712 11005KT 9999 FEW030
BECMG 2611/2613 05004KT
日本時間26日18-20時:110度から5ノットの風
20-22時:風が変化
22時-27日21時:050度から4ノットの風


マウイのカフルイ空港
TAF PHOG 261135Z 2612/2712 05008KT P6SM FEW050
FM262100 04014G21KT P6SM FEW030 SCT050
FM270500 06008KT P6SM FEW060
ハワイ時間26日02-11時:050度から8ノットの風
11-19時:040度から14ノット、突風21ノット
19時-27日02時:060度から8ノットの風


サイパン空港
TAF PGSN 261120Z 2612/2712 08012KT P6SM VCSH FEW020 SCT050
マリアナ時間26日22時-27日22時:080度から12ノットの風

コメント
この記事をはてなブックマークに追加